Pagrindinis puslapis
METAR-TAF:

METAR-TAF

Oro uostai :

Ankoridžas, Aliaska, Jungtinės Amerikos Valstijos

platuma: 61-11N, ilguma: 149-58W, Aukštis: 22 m

Dabartinis oras

Ataskaita buvo paskelbta 55 minutes, ne 20:53 UTC
Vėjas 5 kt iš Šiaurės Rytų
Temperatūra 11°C
Drėgmė 54%
Slėgis 996 hPa
Matomumas: 16.1 km
Apsiniaukę ne aukštis 6000 ft

METAR: PALH 212053Z 05005KT 10SM OVC060 11/02 A2942 RMK AO2 SLP963 T01060022 51020 $

Laikas: 13:48 (21:48 UTC)


TAF: trūkstamas

Orai ataskaitas ir orų prognozės (METAR, TAF).

turimą stotys yra geltonos ir raudonos taškus žemėlapyje.

Perkelti pele per norėdami pamatyti stoties vardą.

Tada spustelėkite, norėdami matyti oro stebėjimo ir prognozės.

Norėdami pakeisti žemėlapį: spustelėkite ant žalios mygtukų su juodo kryžiaus žemyn,; žalią mygtuką su brūkšneliu, jei norite nutolinti; arba žalių rodyklių gretimoms žemėlapius.


METAR-TAF: